Time;durP1;ratioP1;P1;durP2;ratioP2;P2;SDS_P1;SDS_P2;PMS_P1;PMS_P2;Temp;Humidity;BMP_temperature;BMP_pressure;BME280_temperature;BME280_humidity;BME280_pressure;Samples;Min_cycle;Max_cycle;Signal;HPM_P1;HPM_P2
2021/05/02 00:01:26;;;;;;;42.65;30.95;;;;;;;10.47;74.48;97751.25;262114;1093;25967;-71
2021/05/02 00:06:30;;;;;;;43.20;30.17;;;;;;;10.46;74.70;97739.73;262287;1093;23207;-71
2021/05/02 00:11:33;;;;;;;48.73;32.43;;;;;;;10.43;74.64;97738.47;261842;1093;23481;-71
2021/05/02 00:16:36;;;;;;;45.20;31.35;;;;;;;10.46;74.83;97757.70;261799;1093;22942;-70
2021/05/02 00:21:39;;;;;;;45.10;30.90;;;;;;;10.47;75.04;97764.64;262008;1098;24398;-71
2021/05/02 00:26:42;;;;;;;40.37;27.87;;;;;;;10.46;74.63;97715.64;261918;1093;26085;-71
2021/05/02 00:31:53;;;;;;;52.87;32.30;;;;;;;10.48;74.97;97677.84;262152;1098;22801;-72
2021/05/02 00:36:56;;;;;;;53.10;34.03;;;;;;;10.43;75.45;97676.89;262228;1093;22758;-72
2021/05/02 00:42:04;;;;;;;46.33;30.33;;;;;;;10.41;75.58;97649.66;261819;1098;22830;-72
2021/05/02 00:47:15;;;;;;;53.40;34.57;;;;;;;10.36;76.05;97630.28;262151;1094;22740;-72
2021/05/02 00:52:36;;;;;;;52.23;35.47;;;;;;;10.32;76.18;97605.99;261862;1098;25194;-74
2021/05/02 00:57:50;;;;;;;50.67;33.87;;;;;;;10.29;76.32;97595.92;262336;1093;22812;-71
2021/05/02 01:02:57;;;;;;;56.47;34.73;;;;;;;10.27;76.70;97622.23;262072;1093;22757;-72
2021/05/02 01:08:04;;;;;;;47.63;30.33;;;;;;;10.30;76.82;97613.56;262333;1093;25833;-71
2021/05/02 01:13:14;;;;;;;52.97;33.77;;;;;;;10.29;77.06;97614.66;262225;1098;22759;-70
2021/05/02 01:18:19;;;;;;;52.20;32.07;;;;;;;10.26;77.31;97594.66;262128;1093;22757;-71
2021/05/02 01:23:27;;;;;;;47.73;31.43;;;;;;;10.25;77.42;97565.53;262046;1098;24253;-70
2021/05/02 01:28:30;;;;;;;48.15;30.65;;;;;;;10.19;77.59;97542.72;262357;1092;25858;-71
2021/05/02 01:33:33;;;;;;;45.00;28.05;;;;;;;10.13;77.87;97534.06;262161;1093;26006;-71
2021/05/02 01:38:37;;;;;;;48.35;30.35;;;;;;;10.12;77.96;97527.13;261457;1100;22775;-71
2021/05/02 01:43:49;;;;;;;45.90;29.87;;;;;;;10.12;78.44;97513.75;261796;1098;24591;-71
2021/05/02 01:49:03;;;;;;;54.97;34.50;;;;;;;10.08;78.59;97507.45;261792;1096;24253;-71
2021/05/02 01:54:06;;;;;;;52.13;32.57;;;;;;;10.09;78.60;97488.41;261779;1093;24108;-72
2021/05/02 01:59:12;;;;;;;64.67;37.47;;;;;;;10.10;78.71;97486.51;261714;1095;22778;-71
2021/05/02 02:04:31;;;;;;;58.20;33.95;;;;;;;10.11;78.96;97477.39;261952;1098;22913;-72
2021/05/02 02:09:39;;;;;;;57.93;34.77;;;;;;;10.10;79.37;97468.58;261696;1093;26247;-71
2021/05/02 02:14:42;;;;;;;61.80;37.20;;;;;;;10.15;79.55;97464.17;261999;1093;22909;-71
2021/05/02 02:19:57;;;;;;;52.70;31.00;;;;;;;10.17;79.96;97457.41;261736;1095;22741;-70
2021/05/02 02:25:02;;;;;;;60.20;35.90;;;;;;;10.18;79.69;97472.34;261377;1093;23196;-72
2021/05/02 02:30:07;;;;;;;59.77;33.97;;;;;;;10.20;80.03;97434.55;262179;1098;22738;-71
2021/05/02 02:35:14;;;;;;;51.57;29.57;;;;;;;10.24;79.87;97414.08;262088;1098;22796;-72
2021/05/02 02:40:17;;;;;;;57.30;32.70;;;;;;;10.17;80.06;97371.77;261366;1093;26283;-72
2021/05/02 02:45:19;;;;;;;59.07;32.10;;;;;;;10.10;80.12;97361.55;261917;1093;24213;-72
2021/05/02 02:50:22;;;;;;;48.80;26.85;;;;;;;10.05;80.70;97368.97;262085;1092;22832;-72
2021/05/02 02:55:26;;;;;;;49.77;29.47;;;;;;;10.01;80.78;97357.33;261982;1098;22801;-72
2021/05/02 03:00:31;;;;;;;47.73;28.07;;;;;;;10.02;81.01;97366.94;262206;1093;22910;-72
2021/05/02 03:05:38;;;;;;;41.63;25.57;;;;;;;10.01;81.20;97362.69;261781;1093;26264;-71
2021/05/02 03:10:42;;;;;;;43.87;27.03;;;;;;;10.04;80.92;97343.31;262005;1098;22823;-72
2021/05/02 03:15:51;;;;;;;44.97;25.87;;;;;;;10.06;81.22;97328.52;262079;1093;26258;-71
2021/05/02 03:21:17;;;;;;;41.57;25.90;;;;;;;10.08;81.29;97307.56;261919;1093;22744;-72
2021/05/02 03:26:30;;;;;;;41.83;24.97;;;;;;;10.08;81.05;97312.14;262020;1098;23426;-71
2021/05/02 03:31:50;;;;;;;40.25;23.55;;;;;;;10.08;81.53;97312.91;261987;1093;22916;-71
2021/05/02 03:36:57;;;;;;;43.10;24.50;;;;;;;10.08;81.58;97299.53;262167;1093;22762;-71
2021/05/02 03:42:04;;;;;;;41.75;24.00;;;;;;;10.15;81.43;97298.27;261669;1093;22722;-71
2021/05/02 03:47:07;;;;;;;39.97;23.73;;;;;;;10.13;81.59;97335.25;261792;1093;24411;-71
2021/05/02 03:52:15;;;;;;;41.87;25.40;;;;;;;10.00;83.15;97442.13;262060;1098;22829;-72
2021/05/02 03:57:20;;;;;;;48.30;27.07;;;;;;;9.89;82.77;97420.30;261861;1093;24421;-72
2021/05/02 04:02:42;;;;;;;46.97;26.20;;;;;;;9.92;83.30;97386.78;261831;1093;24436;-71
2021/05/02 04:07:52;;;;;;;50.77;28.10;;;;;;;9.96;83.49;97360.17;262218;1093;26257;-71
2021/05/02 04:13:14;;;;;;;48.93;27.70;;;;;;;9.97;83.41;97330.42;261829;1098;26490;-72
2021/05/02 04:18:41;;;;;;;51.30;27.00;;;;;;;9.93;83.38;97308.89;261836;1093;25929;-74
2021/05/02 04:23:58;;;;;;;47.40;26.00;;;;;;;9.90;83.67;97274.73;262213;1093;24246;-80
2021/05/02 04:29:02;;;;;;;57.33;29.93;;;;;;;9.89;83.56;97250.98;262718;1098;24087;-80
2021/05/02 04:34:21;;;;;;;54.77;29.03;;;;;;;9.88;84.24;97238.73;263412;1093;25874;-81
2021/05/02 04:39:37;;;;;;;65.03;31.50;;;;;;;9.81;84.12;97247.25;263627;1093;25800;-79
2021/05/02 04:44:42;;;;;;;74.83;33.83;;;;;;;9.75;84.21;97281.41;263968;1098;22807;-80
2021/05/02 04:49:48;;;;;;;79.97;37.00;;;;;;;9.75;84.52;97280.60;263162;1093;25726;-79
2021/05/02 04:54:52;;;;;;;76.07;35.63;;;;;;;9.79;84.90;97264.72;262717;1101;22759;-79
2021/05/02 04:59:55;;;;;;;72.43;36.37;;;;;;;9.73;84.55;97264.11;263318;1098;22719;-80
2021/05/02 05:04:59;;;;;;;99.87;43.67;;;;;;;9.71;84.92;97232.34;262884;1095;22717;-77
2021/05/02 05:10:10;;;;;;;105.43;43.30;;;;;;;9.69;85.33;97202.45;261802;1094;22765;-77
2021/05/02 05:15:13;;;;;;;65.63;31.90;;;;;;;9.63;86.02;97150.27;261790;1093;22893;-77
2021/05/02 05:20:16;;;;;;;84.43;37.20;;;;;;;9.62;85.97;97131.88;262173;1098;24114;-77
2021/05/02 05:25:32;;;;;;;59.10;27.93;;;;;;;9.62;87.04;97145.25;261869;1093;25875;-77
2021/05/02 05:30:37;;;;;;;57.00;28.40;;;;;;;9.63;86.75;97122.77;261955;1093;22765;-78
2021/05/02 05:35:40;;;;;;;67.13;32.30;;;;;;;9.66;87.13;97106.84;262374;1092;22932;-79
2021/05/02 05:40:42;;;;;;;60.07;30.43;;;;;;;9.71;87.77;97101.32;262223;1092;25826;-79
2021/05/02 05:45:45;;;;;;;46.10;25.10;;;;;;;9.75;87.50;97086.20;262068;1092;25973;-78
2021/05/02 05:50:48;;;;;;;41.30;22.43;;;;;;;9.84;87.97;97035.33;262446;1098;24138;-79
2021/05/02 05:55:56;;;;;;;39.47;23.50;;;;;;;9.90;87.74;97042.03;263885;1092;25749;-80
2021/05/02 06:00:59;;;;;;;39.47;23.70;;;;;;;9.95;87.66;97035.73;263681;1098;24519;-80
2021/05/02 06:06:02;;;;;;;31.73;19.17;;;;;;;9.93;88.33;97024.55;263203;1093;26204;-79
2021/05/02 06:11:04;;;;;;;26.87;17.30;;;;;;;9.92;88.83;97023.78;262424;1098;22765;-78
2021/05/02 06:16:08;;;;;;;16.83;11.90;;;;;;;9.93;88.39;97024.55;262753;1093;22750;-79
2021/05/02 06:21:10;;;;;;;26.57;17.77;;;;;;;9.94;88.67;97007.41;262377;1098;22745;-79
2021/05/02 06:26:15;;;;;;;21.23;15.07;;;;;;;9.94;88.72;96986.78;262764;1093;22746;-79
2021/05/02 06:31:19;;;;;;;21.70;15.83;;;;;;;9.99;89.11;96966.29;262659;1093;26238;-79
2021/05/02 06:36:24;;;;;;;23.97;16.67;;;;;;;9.99;89.41;96966.29;262269;1098;22737;-78
2021/05/02 06:41:27;;;;;;;14.80;11.67;;;;;;;10.01;89.52;96945.36;262239;1098;23489;-78
2021/05/02 06:46:31;;;;;;;25.93;19.27;;;;;;;10.05;89.25;96954.30;262217;1094;22811;-77
2021/05/02 06:51:35;;;;;;;29.57;19.33;;;;;;;10.12;89.14;96941.16;262164;1093;26005;-78
2021/05/02 06:56:39;;;;;;;26.23;17.93;;;;;;;10.23;89.27;96934.28;262122;1098;22769;-77
2021/05/02 07:01:43;;;;;;;27.40;18.30;;;;;;;10.30;88.98;96904.30;262419;1098;22725;-78
2021/05/02 07:06:46;;;;;;;24.60;17.67;;;;;;;10.31;89.14;96905.07;262156;1098;22797;-76
2021/05/02 07:12:03;;;;;;;27.07;18.23;;;;;;;10.34;89.27;96894.53;261904;1098;22810;-78
2021/05/02 07:17:07;;;;;;;20.27;14.57;;;;;;;10.37;89.17;96901.89;262224;1093;25691;-77
2021/05/02 07:22:11;;;;;;;12.40;9.87;;;;;;;10.42;89.81;96900.88;261994;1098;22758;-77
2021/05/02 07:27:16;;;;;;;25.43;18.27;;;;;;;10.56;89.75;96903.23;262046;1093;25855;-77
2021/05/02 07:32:19;;;;;;;25.33;19.63;;;;;;;10.65;89.59;96919.98;262389;1098;23458;-77
2021/05/02 07:37:23;;;;;;;29.83;21.70;;;;;;;10.66;89.41;96900.14;262670;1093;22750;-78
2021/05/02 07:42:27;;;;;;;23.30;17.80;;;;;;;10.62;89.58;96893.89;262484;1093;25926;-79
2021/05/02 07:47:30;;;;;;;33.97;24.90;;;;;;;10.62;89.65;96904.59;262943;1093;22824;-79
2021/05/02 07:52:34;;;;;;;35.80;23.67;;;;;;;10.65;89.74;96898.56;262645;1093;26228;-80
2021/05/02 07:57:39;;;;;;;44.87;31.03;;;;;;;10.70;89.80;96943.88;263816;1098;22788;-80
2021/05/02 08:02:55;;;;;;;46.10;29.33;;;;;;;10.71;89.99;96984.82;263364;1098;22768;-80
2021/05/02 08:07:59;;;;;;;28.00;19.65;;;;;;;10.64;89.69;96971.97;264079;1093;25867;-81
2021/05/02 08:13:03;;;;;;;29.53;21.33;;;;;;;10.66;90.04;96982.35;263938;1098;22625;-80
2021/05/02 08:18:06;;;;;;;37.37;26.10;;;;;;;10.64;89.87;96979.23;263777;1093;26257;-80
2021/05/02 08:23:10;;;;;;;38.70;26.75;;;;;;;10.66;89.92;96991.19;263231;1098;22845;-78
2021/05/02 08:28:13;;;;;;;36.30;25.13;;;;;;;10.63;90.14;97013.25;262494;1093;22877;-79
2021/05/02 08:33:17;;;;;;;23.40;17.60;;;;;;;10.68;90.34;97009.59;262708;1093;22920;-78
2021/05/02 08:38:39;;;;;;;29.30;20.50;;;;;;;10.74;90.33;97027.00;262174;1098;22828;-79
2021/05/02 08:43:50;;;;;;;20.57;15.23;;;;;;;10.82;90.84;97046.78;262141;1098;24459;-79
2021/05/02 08:48:53;;;;;;;12.30;9.60;;;;;;;10.71;90.73;97059.80;262521;1098;22842;-79
2021/05/02 08:53:56;;;;;;;13.20;10.30;;;;;;;10.54;89.89;97066.12;262572;1093;22703;-80
2021/05/02 08:58:59;;;;;;;12.70;9.60;;;;;;;10.50;89.82;97070.56;262618;1093;22811;-79
2021/05/02 09:04:05;;;;;;;6.17;5.47;;;;;;;10.38;89.88;97082.79;261896;1093;22700;-78
2021/05/02 09:09:11;;;;;;;10.13;7.57;;;;;;;10.20;89.97;97092.02;262291;1098;22951;-78
2021/05/02 09:14:22;;;;;;;9.37;8.00;;;;;;;10.06;89.97;97119.83;262325;1093;25874;-77
2021/05/02 09:19:31;;;;;;;9.40;8.37;;;;;;;9.91;90.41;97131.09;262083;1094;22747;-78
2021/05/02 09:24:34;;;;;;;9.37;8.03;;;;;;;9.80;90.92;97149.40;261818;1098;22749;-78
2021/05/02 09:29:44;;;;;;;10.70;8.53;;;;;;;9.73;90.17;97173.19;262082;1093;23202;-76
2021/05/02 09:34:53;;;;;;;8.27;7.37;;;;;;;9.65;90.11;97206.09;261989;1093;25951;-76
2021/05/02 09:39:56;;;;;;;4.13;3.70;;;;;;;9.56;89.84;97235.53;261934;1098;22815;-76
2021/05/02 09:45:01;;;;;;;9.57;8.10;;;;;;;9.34;90.22;97245.31;262000;1093;24113;-76
2021/05/02 09:50:25;;;;;;;11.43;9.50;;;;;;;9.27;90.01;97254.94;261942;1093;26270;-77
2021/05/02 09:55:39;;;;;;;4.63;3.90;;;;;;;9.11;90.35;97282.13;261943;1093;26302;-76
2021/05/02 10:00:58;;;;;;;10.87;7.93;;;;;;;8.90;89.56;97303.34;262498;1093;22729;-76
2021/05/02 10:06:09;;;;;;;7.97;6.80;;;;;;;8.84;89.53;97308.05;262114;1093;22734;-76
2021/05/02 10:11:13;;;;;;;8.03;7.23;;;;;;;8.70;88.86;97313.52;261852;1093;25729;-76
2021/05/02 10:16:15;;;;;;;8.53;7.07;;;;;;;8.55;89.07;97317.41;261740;1093;25982;-76
2021/05/02 10:21:19;;;;;;;7.37;6.60;;;;;;;8.46;89.61;97329.16;261989;1093;22745;-77
2021/05/02 10:26:22;;;;;;;7.23;6.47;;;;;;;8.37;89.82;97342.45;262167;1098;22752;-77
2021/05/02 10:31:29;;;;;;;7.63;6.90;;;;;;;8.28;90.11;97358.43;261794;1098;23720;-77
2021/05/02 10:36:32;;;;;;;6.37;5.73;;;;;;;8.18;89.89;97388.83;262064;1093;24386;-77
2021/05/02 10:41:38;;;;;;;7.87;6.00;;;;;;;8.06;89.42;97393.94;261846;1092;25888;-76
2021/05/02 10:46:50;;;;;;;5.73;4.73;;;;;;;7.92;89.29;97396.67;262023;1098;22878;-77
2021/05/02 10:52:17;;;;;;;7.20;6.40;;;;;;;7.80;89.41;97425.77;262191;1093;22738;-76
2021/05/02 10:57:33;;;;;;;7.47;5.50;;;;;;;7.79;89.82;97440.17;261977;1093;25894;-75
2021/05/02 11:02:44;;;;;;;7.90;5.50;;;;;;;7.75;89.41;97425.88;261858;1098;22748;-76
2021/05/02 11:07:48;;;;;;;2.73;2.10;;;;;;;7.71;89.56;97436.36;261872;1098;22738;-75
2021/05/02 11:12:51;;;;;;;5.20;4.33;;;;;;;7.71;88.96;97457.69;262106;1098;23881;-75
2021/05/02 11:17:55;;;;;;;4.77;2.80;;;;;;;7.74;89.06;97454.41;261864;1098;22774;-76
2021/05/02 11:22:58;;;;;;;3.53;2.93;;;;;;;7.78;89.21;97481.24;262150;1093;22738;-75
2021/05/02 11:28:02;;;;;;;4.50;4.10;;;;;;;7.91;89.54;97488.42;261801;1093;22916;-75
2021/05/02 11:33:21;;;;;;;4.07;3.17;;;;;;;8.13;89.02;97495.64;261868;1098;22738;-75
2021/05/02 11:38:39;;;;;;;3.90;3.07;;;;;;;8.27;88.71;97508.12;262111;1091;22719;-75
2021/05/02 11:43:43;;;;;;;3.10;2.60;;;;;;;8.30;88.29;97510.20;261878;1098;22725;-76
2021/05/02 11:48:50;;;;;;;3.43;3.13;;;;;;;8.33;87.21;97526.38;262055;1093;22755;-75
2021/05/02 11:53:54;;;;;;;2.27;1.57;;;;;;;8.29;86.58;97522.73;262319;1093;22802;-75
2021/05/02 11:59:08;;;;;;;5.17;4.00;;;;;;;8.17;86.41;97565.97;262154;1093;22750;-75
2021/05/02 12:04:18;;;;;;;2.83;2.37;;;;;;;8.12;86.62;97581.30;261918;1093;26245;-74
2021/05/02 12:09:24;;;;;;;3.87;3.47;;;;;;;8.12;85.76;97598.09;262076;1093;26204;-75
2021/05/02 12:14:29;;;;;;;1.43;1.30;;;;;;;8.12;85.96;97630.10;261466;1093;27235;-75
2021/05/02 12:19:39;;;;;;;3.70;3.07;;;;;;;8.11;85.04;97636.52;261824;1093;22751;-75
2021/05/02 12:24:48;;;;;;;2.10;1.50;;;;;;;8.04;84.27;97692.95;262172;1098;22820;-76
2021/05/02 12:29:53;;;;;;;1.87;1.07;;;;;;;7.97;84.68;97668.54;262261;1094;22751;-75
2021/05/02 12:34:56;;;;;;;2.00;1.25;;;;;;;7.92;83.92;97678.52;261808;1098;25298;-75
2021/05/02 12:40:06;;;;;;;2.95;1.25;;;;;;;7.75;83.75;97703.92;261917;1093;23232;-74
2021/05/02 12:45:11;;;;;;;2.80;1.87;;;;;;;7.61;82.70;97695.92;262012;1098;22790;-75
2021/05/02 12:50:23;;;;;;;1.70;1.17;;;;;;;7.60;83.35;97704.98;261950;1098;22745;-76
2021/05/02 12:55:31;;;;;;;3.07;2.33;;;;;;;7.63;83.32;97714.28;261970;1093;22775;-74
2021/05/02 13:00:41;;;;;;;1.30;1.20;;;;;;;7.60;83.18;97744.97;262132;1093;22906;-75
2021/05/02 13:06:00;;;;;;;2.60;1.73;;;;;;;7.53;82.53;97739.23;262095;1093;22834;-75
2021/05/02 13:11:38;;;;;;;2.23;1.67;;;;;;;7.54;82.89;97749.59;261905;1098;22739;-74
2021/05/02 13:16:49;;;;;;;2.37;1.30;;;;;;;7.55;82.61;97763.70;262081;1098;22805;-74
2021/05/02 13:22:25;;;;;;;1.73;1.10;;;;;;;7.65;81.73;97763.55;262199;1098;23612;-74
2021/05/02 13:27:54;;;;;;;1.87;0.93;;;;;;;7.73;81.57;97780.72;262153;1093;22744;-76
2021/05/02 13:33:16;;;;;;;1.80;1.23;;;;;;;7.81;81.80;97787.27;261890;1093;22823;-75
2021/05/02 13:38:20;;;;;;;3.37;2.33;;;;;;;7.84;81.71;97794.67;262215;1098;22790;-74
2021/05/02 13:43:24;;;;;;;1.43;1.33;;;;;;;7.95;81.98;97805.95;262166;1093;22907;-74
2021/05/02 13:48:27;;;;;;;1.73;1.40;;;;;;;8.21;80.68;97811.59;262251;1093;25855;-74
2021/05/02 13:53:32;;;;;;;1.27;1.17;;;;;;;8.38;80.35;97837.70;262027;1098;22768;-75
2021/05/02 13:58:48;;;;;;;0.90;0.87;;;;;;;8.49;79.97;97849.80;262237;1093;22762;-74
2021/05/02 14:04:14;;;;;;;1.10;1.00;;;;;;;8.43;80.05;97868.83;261860;1093;22952;-74
2021/05/02 14:09:26;;;;;;;2.17;1.37;;;;;;;8.30;80.04;97881.87;261848;1098;25614;-75
2021/05/02 14:14:30;;;;;;;2.20;2.00;;;;;;;8.12;79.56;97891.52;262155;1098;24479;-74
2021/05/02 14:19:37;;;;;;;1.67;1.10;;;;;;;8.03;80.61;97893.27;261911;1098;22903;-75
2021/05/02 14:24:40;;;;;;;2.60;1.60;;;;;;;7.96;80.66;97888.34;262237;1098;23447;-75
2021/05/02 14:29:44;;;;;;;1.97;1.43;;;;;;;7.92;80.52;97905.19;261864;1098;22761;-74
2021/05/02 14:34:51;;;;;;;1.83;1.37;;;;;;;7.86;80.52;97931.14;261877;1098;22800;-75
2021/05/02 14:39:56;;;;;;;1.83;1.20;;;;;;;7.73;79.49;97950.56;262066;1093;22738;-75
2021/05/02 14:45:00;;;;;;;2.60;1.10;;;;;;;7.78;80.00;97959.28;261919;1093;24398;-75
2021/05/02 14:50:05;;;;;;;1.80;1.55;;;;;;;7.81;79.97;97960.58;262087;1093;22778;-74
2021/05/02 14:55:15;;;;;;;1.60;1.43;;;;;;;7.86;79.91;97971.95;261813;1092;25104;-75
2021/05/02 15:00:20;;;;;;;3.77;3.27;;;;;;;8.04;80.13;97977.55;262190;1093;22787;-75
2021/05/02 15:05:25;;;;;;;3.85;3.30;;;;;;;8.15;80.21;97978.18;262042;1098;24280;-75
2021/05/02 15:10:28;;;;;;;3.07;2.57;;;;;;;8.44;80.12;97991.31;261997;1098;22763;-75
2021/05/02 15:15:31;;;;;;;6.77;1.80;;;;;;;8.52;78.84;98000.53;261972;1093;23184;-74
2021/05/02 15:20:35;;;;;;;4.00;2.25;;;;;;;8.43;79.13;98000.39;262217;1093;23036;-75
2021/05/02 15:25:38;;;;;;;2.07;1.40;;;;;;;8.21;78.00;98017.02;261920;1093;22835;-75
2021/05/02 15:30:50;;;;;;;1.60;1.35;;;;;;;8.01;79.05;98007.47;262230;1098;22913;-74
2021/05/02 15:35:53;;;;;;;2.63;1.33;;;;;;;7.82;78.21;98010.13;261875;1098;25631;-75
2021/05/02 15:40:56;;;;;;;1.17;1.00;;;;;;;7.67;78.68;98003.95;261915;1098;22750;-74
2021/05/02 15:46:12;;;;;;;3.15;2.40;;;;;;;7.60;79.09;98016.84;261934;1093;24583;-74
2021/05/02 15:51:47;;;;;;;2.13;1.60;;;;;;;7.56;78.26;98053.14;261520;1093;22944;-76
2021/05/02 15:57:10;;;;;;;2.45;1.75;;;;;;;7.44;79.18;98031.44;261885;1093;25324;-75
2021/05/02 16:02:14;;;;;;;1.15;0.90;;;;;;;7.35;78.50;98055.27;262290;1093;25865;-75
2021/05/02 16:07:19;;;;;;;2.50;1.40;;;;;;;7.27;79.07;98051.34;262065;1093;22758;-75
2021/05/02 16:12:22;;;;;;;2.07;1.70;;;;;;;7.26;79.53;98062.28;261834;1098;22939;-75
2021/05/02 16:17:25;;;;;;;3.67;2.83;;;;;;;7.24;79.45;98086.55;261894;1093;26197;-75
2021/05/02 16:22:28;;;;;;;3.17;2.83;;;;;;;7.16;80.10;98087.16;262180;1098;22758;-75
2021/05/02 16:27:34;;;;;;;4.47;3.83;;;;;;;7.15;80.28;98080.27;261986;1098;22954;-75
2021/05/02 16:32:37;;;;;;;2.77;2.50;;;;;;;7.14;80.50;98086.66;261887;1093;22792;-75
2021/05/02 16:37:50;;;;;;;4.27;2.93;;;;;;;7.14;80.53;98100.77;262189;1098;22726;-75
2021/05/02 16:42:53;;;;;;;4.87;4.37;;;;;;;7.11;81.02;98097.89;262192;1092;25206;-75
2021/05/02 16:47:57;;;;;;;3.05;2.65;;;;;;;7.10;80.28;98107.73;261790;1094;25587;-75
2021/05/02 16:53:03;;;;;;;4.10;3.27;;;;;;;7.10;80.22;98120.27;261960;1093;22799;-76
2021/05/02 16:58:10;;;;;;;2.27;1.50;;;;;;;7.07;80.31;98134.93;262068;1094;22809;-75
2021/05/02 17:03:15;;;;;;;4.00;3.57;;;;;;;7.02;80.97;98130.45;261955;1092;26372;-75
2021/05/02 17:08:18;;;;;;;1.67;1.57;;;;;;;6.99;80.27;98152.30;261871;1098;22727;-76
2021/05/02 17:13:21;;;;;;;3.10;2.53;;;;;;;6.95;80.41;98148.63;261796;1098;24377;-75
2021/05/02 17:18:25;;;;;;;3.57;2.57;;;;;;;6.93;80.79;98128.67;262062;1093;26195;-75
2021/05/02 17:23:32;;;;;;;5.23;4.10;;;;;;;6.95;81.36;98142.49;262194;1093;22741;-75
2021/05/02 17:28:37;;;;;;;4.80;3.20;;;;;;;6.95;80.70;98153.95;261987;1093;22748;-75
2021/05/02 17:33:40;;;;;;;3.80;2.87;;;;;;;6.96;81.01;98152.86;261859;1094;22993;-76
2021/05/02 17:38:44;;;;;;;4.40;3.97;;;;;;;6.94;80.56;98151.55;262020;1098;22735;-75
2021/05/02 17:43:49;;;;;;;6.20;5.40;;;;;;;6.92;80.34;98188.33;262123;1098;22737;-76
2021/05/02 17:48:54;;;;;;;5.10;3.80;;;;;;;6.90;80.76;98182.47;262122;1093;22823;-76
2021/05/02 17:53:57;;;;;;;5.10;3.80;;;;;;;6.87;80.71;98186.50;262271;1093;22923;-76
2021/05/02 17:59:01;;;;;;;3.47;2.23;;;;;;;6.88;80.51;98220.02;262194;1098;22757;-75
2021/05/02 18:04:07;;;;;;;2.97;2.30;;;;;;;6.88;80.52;98190.73;262266;1098;22731;-75
2021/05/02 18:09:12;;;;;;;2.60;2.40;;;;;;;6.86;79.71;98224.84;261916;1098;22712;-76
2021/05/02 18:14:15;;;;;;;3.87;2.67;;;;;;;6.84;79.53;98230.45;262147;1092;22719;-75
2021/05/02 18:19:20;;;;;;;7.63;5.40;;;;;;;6.83;79.57;98241.38;262008;1093;22741;-76
2021/05/02 18:24:24;;;;;;;11.13;7.77;;;;;;;6.83;79.85;98249.37;262142;1093;26194;-76
2021/05/02 18:29:28;;;;;;;6.97;5.77;;;;;;;6.85;79.65;98252.53;262083;1093;22749;-75
2021/05/02 18:34:31;;;;;;;7.95;5.40;;;;;;;6.88;79.34;98265.28;261926;1098;22767;-76
2021/05/02 18:39:37;;;;;;;6.03;5.07;;;;;;;6.91;79.58;98261.28;261857;1098;23193;-76
2021/05/02 18:44:40;;;;;;;8.30;6.50;;;;;;;6.91;79.18;98285.24;261840;1093;27655;-76
2021/05/02 18:49:47;;;;;;;5.40;3.23;;;;;;;6.92;79.06;98284.97;261835;1093;26337;-75
2021/05/02 18:54:51;;;;;;;4.40;3.53;;;;;;;6.93;79.36;98299.09;261987;1093;22758;-76
2021/05/02 18:59:53;;;;;;;6.17;4.93;;;;;;;6.92;79.43;98297.50;262027;1093;22741;-75
2021/05/02 19:04:56;;;;;;;7.70;6.07;;;;;;;6.92;79.14;98310.81;262055;1093;22851;-77
2021/05/02 19:09:59;;;;;;;3.90;3.27;;;;;;;6.91;79.57;98310.02;261885;1093;25858;-76
2021/05/02 19:15:05;;;;;;;11.47;8.60;;;;;;;6.92;79.37;98324.91;261810;1094;24103;-75
2021/05/02 19:20:09;;;;;;;11.33;9.10;;;;;;;6.96;79.18;98325.95;262054;1094;22829;-76
2021/05/02 19:25:13;;;;;;;12.07;8.40;;;;;;;6.96;79.67;98331.28;262006;1098;22728;-76
2021/05/02 19:30:17;;;;;;;12.80;9.33;;;;;;;6.98;79.26;98333.66;262092;1098;23434;-75
2021/05/02 19:35:21;;;;;;;9.67;7.47;;;;;;;6.98;78.86;98336.33;261812;1098;22730;-75
2021/05/02 19:40:24;;;;;;;13.27;9.83;;;;;;;6.95;79.71;98328.89;262026;1093;22930;-75
2021/05/02 19:45:28;;;;;;;13.50;10.97;;;;;;;6.89;78.85;98341.44;262263;1093;26254;-76
2021/05/02 19:50:32;;;;;;;17.15;12.55;;;;;;;6.88;79.52;98336.39;261874;1093;25810;-75
2021/05/02 19:55:35;;;;;;;15.97;12.37;;;;;;;6.85;79.63;98341.21;261896;1098;22831;-76
2021/05/02 20:00:44;;;;;;;18.43;12.57;;;;;;;6.85;79.75;98346.53;262053;1093;22754;-76
2021/05/02 20:05:50;;;;;;;12.80;9.40;;;;;;;6.85;79.53;98346.53;262416;1092;27683;-76
2021/05/02 20:10:54;;;;;;;10.47;8.30;;;;;;;6.86;79.27;98344.66;261956;1098;22775;-75
2021/05/02 20:15:57;;;;;;;17.23;11.50;;;;;;;6.85;79.37;98349.20;261962;1098;22838;-76
2021/05/02 20:21:00;;;;;;;14.87;11.77;;;;;;;6.85;79.35;98353.70;261813;1093;27100;-76
2021/05/02 20:26:03;;;;;;;18.50;13.20;;;;;;;6.85;79.14;98364.36;262099;1094;24839;-76
2021/05/02 20:31:05;;;;;;;14.10;10.80;;;;;;;6.84;79.22;98366.23;262039;1092;26057;-76
2021/05/02 20:36:11;;;;;;;14.70;10.97;;;;;;;6.79;79.18;98365.47;261976;1093;22761;-76
2021/05/02 20:41:16;;;;;;;14.10;9.57;;;;;;;6.64;79.64;98364.44;262158;1093;25807;-77
2021/05/02 20:46:20;;;;;;;6.15;4.70;;;;;;;6.47;78.52;98369.30;261870;1094;22747;-76
2021/05/02 20:51:26;;;;;;;7.80;5.93;;;;;;;6.36;78.80;98371.19;261793;1092;27243;-76
2021/05/02 20:56:29;;;;;;;6.93;5.47;;;;;;;6.30;78.51;98374.94;261705;1093;22747;-77
2021/05/02 21:01:33;;;;;;;11.00;8.17;;;;;;;6.18;78.47;98380.53;262105;1098;23218;-76
2021/05/02 21:06:35;;;;;;;11.10;8.40;;;;;;;6.07;78.67;98377.11;261874;1098;22735;-76
2021/05/02 21:11:38;;;;;;;14.50;10.23;;;;;;;6.01;78.78;98385.36;261670;1093;27126;-76
2021/05/02 21:16:46;;;;;;;15.70;12.20;;;;;;;5.98;78.72;98390.13;262032;1093;25858;-76
2021/05/02 21:21:50;;;;;;;18.60;12.57;;;;;;;5.98;79.05;98408.74;261968;1093;26038;-77
2021/05/02 21:26:53;;;;;;;12.70;10.10;;;;;;;5.91;78.89;98416.16;261747;1093;24408;-75
2021/05/02 21:31:58;;;;;;;7.90;6.20;;;;;;;5.93;78.43;98422.03;261859;1093;22789;-77
2021/05/02 21:37:01;;;;;;;7.27;4.83;;;;;;;5.95;77.86;98417.23;262073;1093;22767;-76
2021/05/02 21:42:05;;;;;;;6.20;4.90;;;;;;;5.99;78.05;98420.98;261820;1093;24532;-75
2021/05/02 21:47:08;;;;;;;10.23;8.10;;;;;;;6.04;78.36;98414.86;261769;1094;24405;-76
2021/05/02 21:52:14;;;;;;;7.97;5.30;;;;;;;6.06;77.71;98415.40;262023;1098;22745;-75
2021/05/02 21:57:17;;;;;;;6.43;5.10;;;;;;;6.05;77.68;98419.12;262212;1093;26283;-76
2021/05/02 22:02:21;;;;;;;5.87;4.70;;;;;;;6.06;77.73;98430.54;261643;1093;25935;-75
2021/05/02 22:07:26;;;;;;;5.57;4.53;;;;;;;6.05;77.57;98440.39;261999;1093;25861;-75
2021/05/02 22:12:29;;;;;;;8.53;6.53;;;;;;;6.08;77.61;98439.06;262110;1093;24009;-76
2021/05/02 22:17:40;;;;;;;5.67;4.63;;;;;;;6.09;77.32;98446.77;261787;1092;27139;-75
2021/05/02 22:22:43;;;;;;;5.50;4.23;;;;;;;6.09;77.46;98468.05;261772;1093;25826;-76
2021/05/02 22:27:46;;;;;;;5.50;4.20;;;;;;;6.06;77.51;98457.13;261676;1098;24377;-75
2021/05/02 22:32:50;;;;;;;8.67;6.20;;;;;;;6.05;77.15;98463.53;261867;1092;25875;-76
2021/05/02 22:37:53;;;;;;;8.20;6.60;;;;;;;6.08;77.11;98466.45;261759;1093;24139;-76
2021/05/02 22:43:16;;;;;;;9.70;6.65;;;;;;;6.11;77.25;98465.94;261963;1093;22739;-76
2021/05/02 22:48:21;;;;;;;15.37;9.97;;;;;;;6.13;77.60;98463.80;261965;1093;25864;-76
2021/05/02 22:53:25;;;;;;;8.87;7.33;;;;;;;6.15;77.52;98472.29;261790;1098;22771;-76
2021/05/02 22:58:29;;;;;;;8.93;6.17;;;;;;;6.16;76.84;98471.23;261880;1098;22903;-76
2021/05/02 23:03:32;;;;;;;14.30;9.73;;;;;;;6.20;77.71;98471.52;261771;1093;22748;-76
2021/05/02 23:08:42;;;;;;;13.97;10.37;;;;;;;6.30;77.63;98463.52;262303;1093;22936;-76
2021/05/02 23:13:45;;;;;;;16.15;12.35;;;;;;;6.40;77.33;98459.26;261724;1093;26281;-76
2021/05/02 23:18:49;;;;;;;17.37;11.93;;;;;;;6.44;77.92;98471.75;261932;1093;22850;-76
2021/05/02 23:24:00;;;;;;;17.97;13.17;;;;;;;6.50;77.90;98459.23;261792;1093;26011;-76
2021/05/02 23:29:25;;;;;;;19.13;12.20;;;;;;;6.48;77.83;98464.83;261842;1093;22758;-75
2021/05/02 23:34:30;;;;;;;17.80;13.33;;;;;;;6.52;77.92;98470.42;262128;1098;25181;-77
2021/05/02 23:39:33;;;;;;;18.60;13.83;;;;;;;6.53;78.45;98474.66;261783;1093;25989;-77
2021/05/02 23:44:35;;;;;;;17.07;13.30;;;;;;;6.51;78.46;98469.61;261906;1098;22870;-76